Time;durP1;ratioP1;P1;durP2;ratioP2;P2;SDS_P1;SDS_P2;PMS_P1;PMS_P2;Temp;Humidity;BMP_temperature;BMP_pressure;BME280_temperature;BME280_humidity;BME280_pressure;Samples;Min_cycle;Max_cycle;Signal;HPM_P1;HPM_P2
2021/12/25 00:04:48;;;;;;;17.27;10.23;;;;;;;5.04;100.00;97346.44;10473101;28;19924;-82
2021/12/25 00:09:51;;;;;;;14.85;10.00;;;;;;;5.01;100.00;97356.91;10438093;28;20698;-79
2021/12/25 00:14:51;;;;;;;19.88;11.45;;;;;;;5.03;100.00;97350.19;10448108;28;20056;-78
2021/12/25 00:19:55;;;;;;;20.08;12.02;;;;;;;4.98;100.00;97347.66;10454476;28;20113;-81
2021/12/25 00:24:56;;;;;;;15.43;10.48;;;;;;;4.94;100.00;97344.06;10458909;28;20056;-79
2021/12/25 00:34:57;;;;;;;14.40;9.55;;;;;;;4.76;100.00;97345.09;10452814;28;20045;-78
2021/12/25 00:39:58;;;;;;;15.07;9.27;;;;;;;4.76;100.00;97348.53;10457085;28;20049;-79
2021/12/25 00:45:00;;;;;;;21.48;10.57;;;;;;;4.84;100.00;97345.09;10456164;28;20057;-80
2021/12/25 00:50:04;;;;;;;14.90;9.57;;;;;;;4.81;100.00;97340.41;10466322;28;20408;-78
2021/12/25 00:55:07;;;;;;;12.70;8.80;;;;;;;4.79;100.00;97344.47;10484231;28;20037;-81
2021/12/25 01:00:10;;;;;;;16.83;10.70;;;;;;;4.84;100.00;97347.75;10460113;28;20056;-79
2021/12/25 01:05:14;;;;;;;22.63;11.77;;;;;;;4.81;100.00;97355.59;10405686;28;20077;-78
2021/12/25 01:10:18;;;;;;;18.15;10.95;;;;;;;4.77;100.00;97357.31;10442172;28;20064;-77
2021/12/25 01:15:25;;;;;;;21.10;11.38;;;;;;;4.73;100.00;97362.44;10438966;28;20061;-80
2021/12/25 01:31:05;;;;;;;20.23;12.57;;;;;;;4.74;100.00;97363.22;10445029;28;20060;-83
2021/12/25 01:36:41;;;;;;;22.05;12.40;;;;;;;4.69;100.00;97353.53;10441552;28;20053;-79
2021/12/25 01:52:43;;;;;;;32.95;13.48;;;;;;;4.52;100.00;97356.09;10426446;28;20130;-79
2021/12/25 01:57:50;;;;;;;13.95;9.05;;;;;;;4.38;100.00;97348.19;10455951;28;20057;-80
2021/12/25 02:02:52;;;;;;;14.82;8.68;;;;;;;4.29;100.00;97350.81;10437821;28;20049;-79
2021/12/25 02:07:53;;;;;;;16.88;9.55;;;;;;;4.31;100.00;97361.16;10446421;28;20152;-78
2021/12/25 02:12:54;;;;;;;15.13;9.07;;;;;;;4.33;100.00;97350.22;10452594;28;20061;-78
2021/12/25 02:23:21;;;;;;;12.73;8.05;;;;;;;4.27;100.00;97347.69;10467528;28;20112;-80
2021/12/25 02:28:27;;;;;;;13.27;9.05;;;;;;;4.39;100.00;97356.94;10463023;28;20056;-78
2021/12/25 02:33:30;;;;;;;20.98;11.35;;;;;;;4.50;100.00;97347.66;10438875;28;20060;-79
2021/12/25 02:38:33;;;;;;;19.75;11.40;;;;;;;4.50;100.00;97351.09;10440686;28;20079;-81
2021/12/25 02:43:34;;;;;;;15.07;9.30;;;;;;;4.49;100.00;97343.44;10438123;28;20060;-78
2021/12/25 02:48:37;;;;;;;21.30;10.68;;;;;;;4.35;100.00;97324.91;10453997;28;20079;-80
2021/12/25 02:53:41;;;;;;;15.55;9.23;;;;;;;4.33;100.00;97315.69;10443438;28;20053;-79
2021/12/25 02:58:43;;;;;;;18.95;9.88;;;;;;;4.37;100.00;97313.97;10444269;28;20474;-79
2021/12/25 03:03:45;;;;;;;17.77;10.63;;;;;;;4.41;100.00;97321.03;10449402;28;20053;-79
2021/12/25 03:08:46;;;;;;;13.68;8.38;;;;;;;4.38;100.00;97318.19;10477263;28;20056;-79
2021/12/25 03:14:04;;;;;;;18.80;10.10;;;;;;;4.32;100.00;97319.44;10459643;28;20053;-83
2021/12/25 03:19:12;;;;;;;22.42;11.40;;;;;;;4.31;100.00;97316.00;10488851;28;20063;-79
2021/12/25 03:24:13;;;;;;;19.13;9.73;;;;;;;4.44;100.00;97314.31;10456277;28;20134;-76
2021/12/25 03:29:13;;;;;;;20.70;11.50;;;;;;;4.48;100.00;97318.75;10445498;28;20072;-78
2021/12/25 03:34:14;;;;;;;23.20;12.32;;;;;;;4.57;100.00;97316.91;10428487;28;20057;-78
2021/12/25 03:39:15;;;;;;;21.00;11.55;;;;;;;4.65;100.00;97307.38;10412168;28;20060;-78
2021/12/25 03:44:15;;;;;;;24.25;11.90;;;;;;;4.62;100.00;97302.69;10426972;28;20769;-78
2021/12/25 03:49:33;;;;;;;23.63;11.65;;;;;;;4.58;100.00;97307.06;10445461;28;20053;-80
2021/12/25 04:00:00;;;;;;;19.33;10.00;;;;;;;4.55;100.00;97294.38;10455626;28;20049;-78
2021/12/25 04:05:03;;;;;;;13.38;7.72;;;;;;;4.51;100.00;97301.41;10464300;28;20113;-78
2021/12/25 04:10:06;;;;;;;14.95;8.40;;;;;;;4.51;100.00;97299.53;10446824;28;20528;-79
2021/12/25 04:15:07;;;;;;;19.15;9.95;;;;;;;4.50;100.00;97300.63;10462903;28;20061;-78
2021/12/25 04:20:08;;;;;;;31.65;10.57;;;;;;;4.51;100.00;97293.41;10455409;28;20112;-78
2021/12/25 04:25:09;;;;;;;46.88;9.57;;;;;;;4.39;100.00;97283.38;10422530;28;20085;-78
2021/12/25 04:30:30;;;;;;;14.52;8.60;;;;;;;4.40;100.00;97295.56;10425691;28;20049;-79
2021/12/25 05:02:53;;;;;;;15.70;9.40;;;;;;;4.43;100.00;97283.53;10269927;28;20082;-80
2021/12/25 05:08:29;;;;;;;22.08;11.57;;;;;;;4.51;100.00;97285.44;10290624;28;20062;-80
2021/12/25 05:13:36;;;;;;;20.38;11.25;;;;;;;4.59;100.00;97289.22;10380611;28;20064;-80
2021/12/25 05:18:40;;;;;;;24.08;12.30;;;;;;;4.62;100.00;97285.94;10434885;28;20053;-79
2021/12/25 05:23:45;;;;;;;35.75;11.30;;;;;;;4.61;100.00;97289.69;10429157;28;20059;-80
2021/12/25 05:28:57;;;;;;;20.73;10.60;;;;;;;4.59;100.00;97284.69;10438328;28;20057;-79
2021/12/25 05:34:00;;;;;;;14.10;8.88;;;;;;;4.52;100.00;97293.09;10429448;28;20492;-79
2021/12/25 05:39:13;;;;;;;;;;;;;;;4.64;100.00;97286.41;10425747;28;20097;-78
2021/12/25 05:44:16;;;;;;;33.92;14.50;;;;;;;4.72;100.00;97283.78;10446092;28;19983;-78
2021/12/25 05:49:24;;;;;;;26.63;12.65;;;;;;;4.75;100.00;97293.00;10473967;28;20163;-78
2021/12/25 05:54:54;;;;;;;31.35;14.50;;;;;;;4.74;100.00;97284.25;10401469;28;20120;-80
2021/12/25 06:00:31;;;;;;;30.80;12.98;;;;;;;4.76;100.00;97279.44;10355614;28;20053;-79
2021/12/25 06:05:33;;;;;;;31.45;13.27;;;;;;;4.70;100.00;97288.63;10436251;28;20057;-81
2021/12/25 06:10:34;;;;;;;25.47;11.77;;;;;;;4.72;100.00;97297.06;10459556;28;20116;-79
2021/12/25 06:15:37;;;;;;;22.73;12.10;;;;;;;4.76;100.00;97300.69;10458528;28;20290;-79
2021/12/25 06:20:49;;;;;;;36.92;13.57;;;;;;;4.72;100.00;97309.59;10446063;28;20612;-79
2021/12/25 06:26:07;;;;;;;12.50;7.40;;;;;;;4.06;100.00;97309.47;10450834;28;20128;-81
2021/12/25 06:31:25;;;;;;;9.45;5.57;;;;;;;3.44;100.00;97312.00;10461794;28;20527;-80
2021/12/25 06:36:41;;;;;;;10.40;5.40;;;;;;;2.91;100.00;97314.47;10452280;28;20079;-83
2021/12/25 06:42:08;;;;;;;10.00;6.07;;;;;;;2.80;100.00;97313.88;10448124;28;20052;-78
2021/12/25 06:47:09;;;;;;;12.13;7.18;;;;;;;2.67;100.00;97312.03;10426509;28;20060;-79
2021/12/25 06:52:14;;;;;;;12.88;6.97;;;;;;;2.63;100.00;97321.63;10439990;28;20084;-79
2021/12/25 06:57:39;;;;;;;12.40;6.65;;;;;;;2.62;100.00;97312.91;10448815;28;20049;-78
2021/12/25 07:02:40;;;;;;;14.43;7.35;;;;;;;2.81;100.00;97323.41;10435975;28;20167;-77
2021/12/25 07:08:03;;;;;;;14.45;7.85;;;;;;;2.89;100.00;97328.00;10459127;28;20057;-78
2021/12/25 07:13:23;;;;;;;16.90;9.65;;;;;;;2.83;100.00;97339.78;10464739;28;20060;-79
2021/12/25 07:18:32;;;;;;;18.35;9.45;;;;;;;2.97;100.00;97335.28;10439882;28;20095;-79
2021/12/25 07:23:48;;;;;;;14.55;8.68;;;;;;;2.92;100.00;97339.88;10473655;28;20052;-80
2021/12/25 07:29:01;;;;;;;14.10;7.90;;;;;;;2.68;100.00;97342.75;10460917;28;20053;-81
2021/12/25 07:34:03;;;;;;;;;;;;;;;2.51;100.00;97346.75;10487431;28;20056;-80
2021/12/25 07:39:04;;;;;;;11.00;6.43;;;;;;;2.40;100.00;97349.88;10477162;28;19931;-80
2021/12/25 07:44:20;;;;;;;14.37;7.60;;;;;;;2.25;100.00;97358.88;10457979;28;20549;-82
2021/12/25 07:49:26;;;;;;;10.45;6.28;;;;;;;2.14;100.00;97370.72;10439706;28;20080;-83
2021/12/25 07:54:33;;;;;;;10.85;6.38;;;;;;;2.03;100.00;97370.09;10475221;28;20105;-82
2021/12/25 07:59:33;;;;;;;11.35;6.47;;;;;;;1.94;100.00;97367.31;10440807;28;20030;-80
2021/12/25 08:04:35;;;;;;;15.35;6.53;;;;;;;1.91;100.00;97378.47;10464635;28;20152;-82
2021/12/25 08:09:42;;;;;;;10.25;5.78;;;;;;;1.79;100.00;97375.50;10450880;28;20060;-80
2021/12/25 08:14:43;;;;;;;9.00;5.80;;;;;;;1.67;100.00;97375.94;10451471;28;20523;-79
2021/12/25 08:19:44;;;;;;;10.80;5.93;;;;;;;1.69;100.00;97380.94;10451123;28;20044;-79
2021/12/25 08:25:04;;;;;;;11.80;6.82;;;;;;;1.54;100.00;97389.84;10497385;28;20045;-80
2021/12/25 08:30:26;;;;;;;10.48;6.43;;;;;;;1.55;100.00;97388.00;10435233;28;20057;-78
2021/12/25 08:35:45;;;;;;;11.02;6.75;;;;;;;1.61;100.00;97398.22;10457384;28;20567;-80
2021/12/25 08:40:48;;;;;;;14.10;7.00;;;;;;;1.87;100.00;97400.50;10461318;28;20060;-79
2021/12/25 08:46:03;;;;;;;12.88;7.07;;;;;;;1.66;100.00;97408.75;10421305;28;20067;-80
2021/12/25 08:51:03;;;;;;;13.68;7.65;;;;;;;1.85;100.00;97414.03;10435653;28;20055;-80
2021/12/25 08:56:09;;;;;;;11.90;6.85;;;;;;;1.90;100.00;97410.50;10437427;28;20044;-79
2021/12/25 09:01:11;;;;;;;13.30;6.95;;;;;;;1.79;100.00;97417.81;10425060;28;20057;-80
2021/12/25 09:06:16;;;;;;;10.32;6.38;;;;;;;1.91;100.00;97420.00;10435720;28;20151;-80
2021/12/25 09:11:18;;;;;;;11.95;6.78;;;;;;;1.69;100.00;97423.25;10449377;28;20436;-79
2021/12/25 09:16:18;;;;;;;10.27;6.10;;;;;;;1.73;100.00;97424.25;10462011;28;20427;-79
2021/12/25 09:21:24;;;;;;;9.48;5.75;;;;;;;1.82;100.00;97430.47;10464449;28;20518;-82
2021/12/25 09:26:26;;;;;;;12.65;6.72;;;;;;;2.01;100.00;97435.75;10454483;28;20112;-80
2021/12/25 09:31:30;;;;;;;11.77;7.07;;;;;;;1.94;100.00;97453.84;10469098;28;20068;-81
2021/12/25 09:36:31;;;;;;;9.80;6.22;;;;;;;1.85;100.00;97450.28;10444377;28;20052;-83
2021/12/25 09:41:38;;;;;;;10.93;6.03;;;;;;;1.97;100.00;97453.28;10444965;28;20095;-79
2021/12/25 09:46:40;;;;;;;7.60;4.53;;;;;;;1.93;100.00;97460.22;10463239;28;20052;-80
2021/12/25 09:51:45;;;;;;;3.45;1.42;;;;;;;2.09;100.00;97458.91;10414487;28;20103;-78
2021/12/25 09:56:49;;;;;;;2.05;1.30;;;;;;;2.12;100.00;97465.50;10460550;28;20049;-78
2021/12/25 10:01:56;;;;;;;1.52;1.42;;;;;;;2.09;100.00;97461.56;10444702;28;20066;-80
2021/12/25 10:07:32;;;;;;;2.03;1.30;;;;;;;2.19;100.00;97464.03;10445565;28;20083;-80
2021/12/25 10:12:42;;;;;;;1.83;1.50;;;;;;;2.13;100.00;97470.50;10460351;28;20048;-79
2021/12/25 10:17:55;;;;;;;2.20;1.50;;;;;;;2.07;100.00;97470.88;10427281;28;20522;-79
2021/12/25 10:23:22;;;;;;;5.97;3.92;;;;;;;1.85;100.00;97455.56;10455670;28;20068;-78
2021/12/25 10:28:36;;;;;;;6.38;4.32;;;;;;;1.84;100.00;97461.94;10467114;28;20054;-79
2021/12/25 10:33:44;;;;;;;8.75;6.03;;;;;;;1.77;100.00;97451.72;10449678;28;20044;-79
2021/12/25 10:39:09;;;;;;;6.43;4.55;;;;;;;1.77;100.00;97451.72;10492097;28;20071;-79
2021/12/25 10:44:11;;;;;;;9.02;5.13;;;;;;;1.83;100.00;97452.41;10471217;28;20068;-78
2021/12/25 10:49:14;;;;;;;5.00;3.20;;;;;;;2.21;100.00;97453.19;10434908;28;20091;-78
2021/12/25 10:54:17;;;;;;;1.88;1.67;;;;;;;2.15;100.00;97449.03;10435859;28;20067;-78
2021/12/25 10:59:41;;;;;;;1.75;1.30;;;;;;;2.08;100.00;97444.09;10456563;28;20135;-79
2021/12/25 11:04:42;;;;;;;1.50;1.30;;;;;;;1.96;100.00;97435.81;10433034;28;20603;-79
2021/12/25 11:10:10;;;;;;;1.50;1.40;;;;;;;2.07;100.00;97441.75;10474521;28;20048;-83
2021/12/25 11:15:22;;;;;;;2.45;1.80;;;;;;;1.87;100.00;97440.97;10455998;28;20119;-77
2021/12/25 11:20:30;;;;;;;2.47;1.85;;;;;;;1.91;100.00;97444.63;10454704;28;20107;-79
2021/12/25 11:25:33;;;;;;;2.42;1.80;;;;;;;2.02;100.00;97447.94;10424127;28;20041;-81
2021/12/25 11:30:44;;;;;;;2.92;2.08;;;;;;;1.94;100.00;97452.00;10451607;28;20049;-79
2021/12/25 11:35:44;;;;;;;2.28;1.92;;;;;;;1.93;100.00;97447.00;10438246;28;20125;-78
2021/12/25 11:40:52;;;;;;;1.50;1.33;;;;;;;1.96;100.00;97438.47;10440945;28;20080;-78
2021/12/25 11:45:52;;;;;;;1.90;1.70;;;;;;;1.92;100.00;97440.91;10480076;28;20411;-80
2021/12/25 11:50:53;;;;;;;2.22;1.75;;;;;;;1.82;100.00;97442.91;10422572;28;20083;-78
2021/12/25 11:56:25;;;;;;;2.33;1.80;;;;;;;1.80;100.00;97456.41;10422006;28;20057;-78
2021/12/25 12:01:46;;;;;;;1.92;1.70;;;;;;;1.61;100.00;97443.19;10453823;28;20512;-79
2021/12/25 12:06:56;;;;;;;2.58;2.15;;;;;;;1.69;100.00;97447.06;10428989;28;20067;-78
2021/12/25 12:12:27;;;;;;;2.45;2.25;;;;;;;1.70;100.00;97449.41;10437448;28;20144;-79
2021/12/25 12:17:47;;;;;;;3.03;2.28;;;;;;;1.93;100.00;97460.22;10434042;28;20064;-80
2021/12/25 12:23:02;;;;;;;3.55;2.60;;;;;;;1.88;100.00;97450.50;10422198;28;20068;-79
2021/12/25 12:28:48;;;;;;;2.15;1.95;;;;;;;1.93;100.00;97454.94;10441381;28;20061;-79
2021/12/25 12:33:49;;;;;;;3.42;2.63;;;;;;;1.95;100.00;97456.22;10459012;28;20116;-78
2021/12/25 12:38:56;;;;;;;2.17;1.98;;;;;;;1.77;100.00;97462.28;10465575;28;20056;-81
2021/12/25 12:44:20;;;;;;;2.20;2.00;;;;;;;1.65;100.00;97473.31;10446889;28;20061;-80
2021/12/25 12:49:21;;;;;;;;;;;;;;;1.84;100.00;97480.47;10431835;28;20143;-79
2021/12/25 12:54:43;;;;;;;2.38;2.17;;;;;;;1.65;100.00;97491.81;10456568;28;19932;-80
2021/12/25 12:59:50;;;;;;;2.20;2.00;;;;;;;1.58;100.00;97487.94;10466317;28;20057;-80
2021/12/25 13:04:58;;;;;;;2.90;1.92;;;;;;;1.45;100.00;97499.97;10468229;28;20052;-81
2021/12/25 13:15:48;;;;;;;2.70;2.13;;;;;;;1.51;100.00;97520.00;10446581;28;20542;-81
2021/12/25 13:20:53;;;;;;;1.98;1.88;;;;;;;1.30;100.00;97524.75;10470083;28;20071;-79
2021/12/25 13:26:04;;;;;;;3.65;2.30;;;;;;;1.34;100.00;97520.47;10449203;28;20057;-79
2021/12/25 13:31:11;;;;;;;2.80;2.42;;;;;;;1.37;100.00;97530.50;10409824;28;21046;-80
2021/12/25 13:36:19;;;;;;;2.60;2.28;;;;;;;1.20;100.00;97540.72;10458028;28;20059;-79
2021/12/25 13:41:32;;;;;;;2.95;2.50;;;;;;;1.33;100.00;97539.25;10477801;28;20037;-80
2021/12/25 13:46:58;;;;;;;3.78;2.80;;;;;;;1.22;100.00;97545.72;10415314;28;20049;-79
2021/12/25 13:52:05;;;;;;;3.13;2.83;;;;;;;1.31;100.00;97546.69;10443306;28;20116;-79
2021/12/25 13:57:09;;;;;;;2.97;2.53;;;;;;;1.24;100.00;97556.78;10439849;28;20045;-80
2021/12/25 14:02:15;;;;;;;3.55;2.50;;;;;;;1.18;100.00;97552.59;10454302;28;20052;-79
2021/12/25 14:07:19;;;;;;;3.00;2.70;;;;;;;1.19;100.00;97552.34;10430060;28;20060;-80
2021/12/25 14:12:21;;;;;;;2.85;2.35;;;;;;;1.02;100.00;97560.69;10428925;28;20056;-79
2021/12/25 14:17:23;;;;;;;3.38;2.90;;;;;;;0.98;100.00;97572.09;10434584;28;20057;-79
2021/12/25 14:22:23;;;;;;;3.80;3.30;;;;;;;0.98;100.00;97580.00;10475518;28;20076;-79
2021/12/25 14:27:24;;;;;;;4.55;3.30;;;;;;;0.91;100.00;97584.81;10431780;28;20049;-81
2021/12/25 14:32:28;;;;;;;3.28;2.92;;;;;;;0.59;100.00;97591.41;10468228;28;20130;-79
2021/12/25 14:37:36;;;;;;;5.43;3.00;;;;;;;0.63;100.00;97599.56;10450209;28;20149;-78
2021/12/25 14:42:43;;;;;;;4.05;3.53;;;;;;;0.59;100.00;97599.34;10478279;28;20084;-79
2021/12/25 14:48:04;;;;;;;4.15;3.42;;;;;;;0.61;100.00;97610.41;10472026;28;20061;-78
2021/12/25 14:53:13;;;;;;;4.63;3.67;;;;;;;0.50;100.00;97614.97;10450576;28;20060;-79
2021/12/25 14:58:18;;;;;;;5.57;3.90;;;;;;;0.53;100.00;97629.47;10456467;28;20065;-79
2021/12/25 15:03:23;;;;;;;4.63;3.97;;;;;;;0.38;100.00;97627.72;10466958;28;20063;-80
2021/12/25 15:08:37;;;;;;;6.05;4.68;;;;;;;0.16;100.00;97630.72;10467509;28;20080;-80
2021/12/25 15:13:41;;;;;;;4.88;3.85;;;;;;;0.05;100.00;97634.47;10475663;28;20072;-79
2021/12/25 15:18:44;;;;;;;4.47;3.53;;;;;;;0.13;100.00;97647.09;10487923;28;20087;-80
2021/12/25 15:23:48;;;;;;;4.07;3.47;;;;;;;-0.02;100.00;97649.78;10479001;28;20037;-79
2021/12/25 15:28:59;;;;;;;4.07;3.13;;;;;;;-0.15;100.00;97645.09;10464247;28;20083;-79
2021/12/25 15:34:12;;;;;;;5.00;3.17;;;;;;;-0.09;100.00;97658.00;10470916;28;20377;-79
2021/12/25 15:39:17;;;;;;;3.35;2.95;;;;;;;-0.24;100.00;97668.59;10449136;28;20389;-78
2021/12/25 15:44:21;;;;;;;5.75;3.53;;;;;;;-0.26;100.00;97675.19;10461253;28;20057;-79
2021/12/25 15:49:24;;;;;;;4.22;3.22;;;;;;;-0.32;100.00;97677.03;10447352;28;20074;-78
2021/12/25 15:54:25;;;;;;;4.13;3.22;;;;;;;-0.24;100.00;97681.78;10443403;28;20088;-79
2021/12/25 15:59:33;;;;;;;4.40;2.85;;;;;;;-0.19;100.00;97684.38;10464058;28;20480;-80
2021/12/25 16:04:36;;;;;;;5.47;4.00;;;;;;;-0.26;100.00;97681.25;10477205;28;20481;-78
2021/12/25 16:09:37;;;;;;;5.43;3.35;;;;;;;-0.22;100.00;97677.00;10450114;28;20456;-78
2021/12/25 16:14:42;;;;;;;4.63;3.75;;;;;;;-0.24;100.00;97671.22;10471147;28;20447;-78
2021/12/25 16:19:43;;;;;;;4.97;3.50;;;;;;;-0.24;100.00;97673.84;10420873;28;20061;-79
2021/12/25 16:24:43;;;;;;;4.65;3.80;;;;;;;-0.23;100.00;97685.97;10465351;28;20060;-79
2021/12/25 16:29:47;;;;;;;5.93;3.85;;;;;;;-0.28;100.00;97685.97;10440473;28;20095;-80
2021/12/25 16:34:47;;;;;;;;;;;;;;;-0.41;100.00;97697.09;10472171;28;20059;-79
2021/12/25 16:39:48;;;;;;;3.85;2.90;;;;;;;-0.33;100.00;97688.66;10428981;28;20023;-79
2021/12/25 16:44:48;;;;;;;3.47;3.17;;;;;;;-0.35;100.00;97685.50;10434701;28;20065;-81
2021/12/25 16:49:49;;;;;;;4.78;3.72;;;;;;;-0.29;100.00;97681.78;10417793;28;20077;-79
2021/12/25 16:54:50;;;;;;;4.28;3.10;;;;;;;-0.32;100.00;97680.47;10420805;28;20056;-80
2021/12/25 16:59:52;;;;;;;3.88;2.90;;;;;;;-0.40;100.00;97682.84;10443674;28;20057;-79
2021/12/25 17:04:59;;;;;;;3.88;3.20;;;;;;;-0.32;100.00;97690.22;10454136;28;20057;-78
2021/12/25 17:10:01;;;;;;;4.65;3.63;;;;;;;-0.28;100.00;97692.03;10443822;28;20053;-79
2021/12/25 17:15:07;;;;;;;4.70;3.58;;;;;;;-0.32;100.00;97688.38;10435380;28;20063;-78
2021/12/25 17:20:09;;;;;;;4.03;3.38;;;;;;;-0.30;100.00;97696.00;10435943;28;20117;-77
2021/12/25 17:25:14;;;;;;;5.10;3.30;;;;;;;-0.36;100.00;97703.16;10468857;28;20049;-78
2021/12/25 17:30:20;;;;;;;4.85;3.13;;;;;;;-0.39;100.00;97695.75;10452593;28;20091;-80
2021/12/25 17:35:25;;;;;;;3.47;2.97;;;;;;;-0.51;100.00;97682.09;10471126;28;20056;-79
2021/12/25 17:40:25;;;;;;;3.50;2.65;;;;;;;-0.48;100.00;97689.44;10459550;28;20053;-79
2021/12/25 17:45:26;;;;;;;4.00;2.90;;;;;;;-0.48;100.00;97709.75;10470147;28;20049;-79
2021/12/25 17:50:31;;;;;;;4.60;3.00;;;;;;;-0.56;100.00;97716.34;10457504;28;20064;-79
2021/12/25 17:55:33;;;;;;;4.18;2.55;;;;;;;-0.60;100.00;97729.25;10454684;28;20049;-80
2021/12/25 18:00:40;;;;;;;3.72;2.75;;;;;;;-0.58;100.00;97713.97;10450979;28;20105;-80
2021/12/25 18:05:42;;;;;;;2.58;2.30;;;;;;;-0.69;100.00;97715.03;10451547;28;20061;-80
2021/12/25 18:10:43;;;;;;;4.32;2.70;;;;;;;-0.70;100.00;97715.28;10460958;28;20136;-78
2021/12/25 18:15:44;;;;;;;4.10;2.35;;;;;;;-0.73;100.00;97716.63;10461208;28;20520;-78
2021/12/25 18:20:46;;;;;;;4.05;2.97;;;;;;;-0.75;100.00;97718.72;10450958;28;20048;-82
2021/12/25 18:25:51;;;;;;;4.75;2.72;;;;;;;-0.73;100.00;97721.91;10481985;28;20061;-82
2021/12/25 18:30:56;;;;;;;4.22;2.22;;;;;;;-0.82;100.00;97720.84;10472039;28;20045;-82
2021/12/25 18:35:59;;;;;;;4.70;3.08;;;;;;;-0.83;100.00;97727.13;10443231;28;20081;-80
2021/12/25 18:41:01;;;;;;;2.80;2.40;;;;;;;-0.80;100.00;97736.38;10433876;28;20069;-80
2021/12/25 18:46:03;;;;;;;4.53;2.70;;;;;;;-0.71;100.00;97742.69;10420008;28;20486;-79
2021/12/25 18:51:05;;;;;;;3.97;2.70;;;;;;;-0.77;100.00;97731.34;10466968;28;20126;-81
2021/12/25 18:56:05;;;;;;;4.75;3.35;;;;;;;-0.70;100.00;97729.25;10474780;28;20041;-82
2021/12/25 19:01:06;;;;;;;4.28;3.08;;;;;;;-0.68;100.00;97742.16;10447710;28;20032;-80
2021/12/25 19:06:07;;;;;;;4.15;2.88;;;;;;;-0.68;100.00;97734.25;10469750;28;20072;-79
2021/12/25 19:11:10;;;;;;;6.00;3.20;;;;;;;-0.66;100.00;97729.50;10470154;28;20068;-80
2021/12/25 19:16:13;;;;;;;4.47;2.95;;;;;;;-0.60;100.00;97724.00;10435596;28;20056;-82
2021/12/25 19:21:15;;;;;;;5.38;2.90;;;;;;;-0.71;100.00;97738.22;10470964;28;20052;-80
2021/12/25 19:26:16;;;;;;;4.75;2.97;;;;;;;-0.73;100.00;97737.69;10467443;28;20045;-80
2021/12/25 19:31:20;;;;;;;4.03;3.10;;;;;;;-0.71;100.00;97737.44;10476148;28;20083;-82
2021/12/25 19:36:22;;;;;;;4.40;3.10;;;;;;;-0.66;100.00;97748.75;10464353;28;20051;-82
2021/12/25 19:41:28;;;;;;;5.03;3.17;;;;;;;-0.63;100.00;97750.09;10418587;28;20053;-80
2021/12/25 19:46:32;;;;;;;4.47;3.10;;;;;;;-0.74;100.00;97743.22;10475393;28;20125;-80
2021/12/25 19:51:34;;;;;;;4.35;3.10;;;;;;;-0.75;100.00;97745.06;10459098;28;20131;-79
2021/12/25 19:56:38;;;;;;;3.70;2.55;;;;;;;-0.65;100.00;97749.53;10445444;28;20123;-79
2021/12/25 20:01:43;;;;;;;4.20;2.60;;;;;;;-0.55;100.00;97748.75;10460856;28;20092;-79
2021/12/25 20:06:43;;;;;;;4.22;2.67;;;;;;;-0.73;100.00;97744.78;10467584;28;20060;-79
2021/12/25 20:11:45;;;;;;;5.43;2.85;;;;;;;-0.74;100.00;97743.22;10466088;28;20072;-81
2021/12/25 20:16:48;;;;;;;4.72;2.78;;;;;;;-0.67;100.00;97747.16;10448150;28;20124;-80
2021/12/25 20:21:52;;;;;;;3.85;2.90;;;;;;;-0.75;100.00;97744.25;10464660;28;20037;-80
2021/12/25 20:26:53;;;;;;;4.25;2.60;;;;;;;-0.67;100.00;97751.66;10468191;28;20041;-80
2021/12/25 20:31:54;;;;;;;4.50;3.10;;;;;;;-0.66;100.00;97751.38;10473866;28;20049;-81
2021/12/25 20:36:57;;;;;;;5.35;3.17;;;;;;;-0.49;100.00;97756.41;10470935;28;20056;-79
2021/12/25 20:42:00;;;;;;;3.35;2.70;;;;;;;-0.62;100.00;97747.19;10457477;28;20060;-79
2021/12/25 20:47:06;;;;;;;3.92;2.95;;;;;;;-0.65;100.00;97736.38;10454072;28;20059;-78
2021/12/25 20:52:06;;;;;;;3.05;2.47;;;;;;;-0.68;100.00;97727.16;10442185;28;20072;-77
2021/12/25 20:57:08;;;;;;;4.53;3.03;;;;;;;-0.63;100.00;97742.19;10448920;28;20053;-76
2021/12/25 21:02:08;;;;;;;4.75;3.17;;;;;;;-0.70;100.00;97739.81;10461097;28;20427;-76
2021/12/25 21:07:09;;;;;;;4.75;3.00;;;;;;;-0.67;100.00;97739.25;10458537;28;20092;-77
2021/12/25 21:12:10;;;;;;;4.03;2.92;;;;;;;-0.75;100.00;97733.72;10427281;28;20112;-78
2021/12/25 21:17:11;;;;;;;4.80;3.17;;;;;;;-0.74;100.00;97735.31;10446778;28;20052;-77
2021/12/25 21:22:11;;;;;;;4.90;3.47;;;;;;;-0.74;100.00;97736.09;10440489;28;20060;-78
2021/12/25 21:27:14;;;;;;;6.65;3.28;;;;;;;-0.68;100.00;97737.69;10452358;28;20071;-77
2021/12/25 21:32:16;;;;;;;4.88;3.80;;;;;;;-0.66;100.00;97735.56;10441053;28;20049;-78
2021/12/25 21:37:17;;;;;;;4.15;3.03;;;;;;;-0.58;100.00;97742.16;10442662;28;20052;-79
2021/12/25 21:42:18;;;;;;;4.15;3.22;;;;;;;-0.74;100.00;97744.00;10459054;28;20135;-76
2021/12/25 21:47:20;;;;;;;5.15;3.75;;;;;;;-0.72;100.00;97749.03;10464952;28;20056;-77
2021/12/25 21:52:20;;;;;;;5.03;3.50;;;;;;;-0.78;100.00;97739.53;10477574;28;20264;-77
2021/12/25 21:57:21;;;;;;;5.15;3.25;;;;;;;-0.72;100.00;97749.81;10435576;28;20135;-78
2021/12/25 22:02:21;;;;;;;6.78;4.25;;;;;;;-0.69;100.00;97751.91;10417086;28;20049;-78
2021/12/25 22:07:27;;;;;;;5.70;3.47;;;;;;;-0.76;100.00;97753.22;10434824;28;20107;-79
2021/12/25 22:12:31;;;;;;;5.88;3.85;;;;;;;-0.66;100.00;97750.59;10449424;28;20630;-77
2021/12/25 22:17:33;;;;;;;;;;;;;;;-0.68;100.00;97753.50;10458317;28;20113;-78
2021/12/25 22:22:35;;;;;;;5.22;4.07;;;;;;;-0.71;100.00;97750.59;10462427;28;20380;-78
2021/12/25 22:27:35;;;;;;;6.05;3.88;;;;;;;-0.75;100.00;97744.25;10428251;28;20076;-78
2021/12/25 22:32:36;;;;;;;9.20;4.57;;;;;;;-0.81;100.00;97742.69;10462463;28;20068;-80
2021/12/25 22:37:37;;;;;;;7.32;4.40;;;;;;;-0.89;100.00;97746.63;10457095;28;20057;-78
2021/12/25 22:42:40;;;;;;;6.88;4.40;;;;;;;-0.78;100.00;97744.81;10452489;28;20122;-78
2021/12/25 22:47:42;;;;;;;7.00;4.80;;;;;;;-0.74;100.00;97745.84;10436397;28;20049;-77
2021/12/25 22:52:43;;;;;;;7.72;5.18;;;;;;;-0.84;100.00;97746.63;10462404;28;20071;-77
2021/12/25 22:57:44;;;;;;;6.82;4.60;;;;;;;-0.94;100.00;97752.69;10440063;28;20121;-78
2021/12/25 23:02:50;;;;;;;7.38;4.53;;;;;;;-0.89;100.00;97746.63;10459260;28;20143;-79
2021/12/25 23:07:50;;;;;;;7.20;5.13;;;;;;;-0.86;100.00;97746.91;10460831;28;20064;-78
2021/12/25 23:12:51;;;;;;;9.75;5.60;;;;;;;-0.99;100.00;97728.97;10465256;28;20061;-79
2021/12/25 23:17:52;;;;;;;9.18;5.25;;;;;;;-0.96;100.00;97727.66;10418496;28;20049;-79
2021/12/25 23:22:53;;;;;;;8.00;5.20;;;;;;;-0.90;100.00;97723.97;10424438;28;20053;-78
2021/12/25 23:27:54;;;;;;;9.15;5.57;;;;;;;-0.90;100.00;97723.97;10457763;28;20520;-77
2021/12/25 23:32:55;;;;;;;10.20;5.68;;;;;;;-1.00;100.00;97730.03;10471798;28;20060;-78
2021/12/25 23:37:57;;;;;;;9.70;5.90;;;;;;;-0.94;100.00;97728.97;10433104;28;20089;-78
2021/12/25 23:42:57;;;;;;;9.38;5.30;;;;;;;-0.94;100.00;97721.06;10449516;28;20076;-77
2021/12/25 23:47:59;;;;;;;8.65;5.65;;;;;;;-0.99;100.00;97709.75;10463862;28;20067;-81
2021/12/25 23:53:01;;;;;;;11.00;5.95;;;;;;;-1.11;100.00;97704.72;10488736;28;20087;-79
2021/12/25 23:58:04;;;;;;;9.50;5.80;;;;;;;-0.95;100.00;97700.25;10466884;28;20060;-78
